createdAt,value
2017-06-02T00:00:00.014Z,0
2017-06-02T00:01:10.284Z,0
2017-06-02T00:02:20.551Z,0
2017-06-02T00:03:30.814Z,0
2017-06-02T00:04:40.766Z,0
2017-06-02T00:05:50.713Z,0
2017-06-02T00:07:00.667Z,0
2017-06-02T00:08:10.934Z,0
2017-06-02T00:09:21.200Z,0
2017-06-02T00:10:30.858Z,0
2017-06-02T00:11:40.503Z,0
2017-06-02T00:12:49.828Z,0
2017-06-02T00:14:00.138Z,0
2017-06-02T00:15:09.775Z,0
2017-06-02T00:16:19.726Z,0
2017-06-02T00:17:29.685Z,0
2017-06-02T00:18:39.639Z,0
2017-06-02T00:19:49.903Z,0
2017-06-02T00:20:59.853Z,0
2017-06-02T00:22:09.802Z,0
2017-06-02T00:23:19.441Z,0
2017-06-02T00:24:28.762Z,0
2017-06-02T00:25:39.027Z,0
2017-06-02T00:26:48.981Z,0
2017-06-02T00:27:59.259Z,0
2017-06-02T00:29:09.212Z,0
2017-06-02T00:30:19.476Z,0
2017-06-02T00:31:29.742Z,0
2017-06-02T00:32:39.376Z,0
2017-06-02T00:33:49.325Z,0
2017-06-02T00:34:58.964Z,0
2017-06-02T00:36:08.929Z,0
2017-06-02T00:37:18.573Z,0
2017-06-02T00:38:28.525Z,0
2017-06-02T00:39:38.478Z,0
2017-06-02T00:40:48.740Z,0
2017-06-02T00:41:58.686Z,0
2017-06-02T00:43:08.641Z,0
2017-06-02T00:44:17.646Z,0
2017-06-02T00:45:27.912Z,0
2017-06-02T00:46:38.179Z,0
2017-06-02T00:47:47.816Z,0
2017-06-02T00:48:57.765Z,0
2017-06-02T00:50:08.030Z,0
2017-06-02T00:51:17.985Z,0
2017-06-02T00:52:27.934Z,0
2017-06-02T00:53:38.196Z,0
2017-06-02T00:54:47.833Z,0
2017-06-02T00:55:57.466Z,0
2017-06-02T00:57:07.417Z,0
2017-06-02T00:58:17.056Z,0
2017-06-02T00:59:27.006Z,0
2017-06-02T01:00:37.275Z,0
2017-06-02T01:01:46.913Z,0
2017-06-02T01:02:57.192Z,0
2017-06-02T01:04:06.825Z,0
2017-06-02T01:05:16.454Z,0
2017-06-02T01:06:26.095Z,0
2017-06-02T01:07:36.363Z,0
2017-06-02T01:08:46.629Z,0
2017-06-02T01:09:56.280Z,0
2017-06-02T01:11:06.549Z,0
2017-06-02T01:12:16.188Z,0
2017-06-02T01:13:25.822Z,0
2017-06-02T01:14:36.081Z,0
2017-06-02T01:15:45.402Z,0
2017-06-02T01:16:55.351Z,0
2017-06-02T01:18:05.611Z,0
2017-06-02T01:19:15.573Z,0
2017-06-02T01:20:25.846Z,0
2017-06-02T01:21:35.185Z,0
2017-06-02T01:22:45.135Z,0
2017-06-02T01:23:55.403Z,0
2017-06-02T01:25:05.677Z,0
2017-06-02T01:26:15.013Z,0
2017-06-02T01:27:24.965Z,0
2017-06-02T01:28:34.601Z,0
2017-06-02T01:29:44.862Z,0
2017-06-02T01:30:54.808Z,0
2017-06-02T01:32:05.076Z,0
2017-06-02T01:33:15.038Z,0
2017-06-02T01:34:25.035Z,0
2017-06-02T01:35:34.988Z,0
2017-06-02T01:36:45.283Z,0
2017-06-02T01:37:55.233Z,0
2017-06-02T01:39:05.496Z,0
2017-06-02T01:40:14.809Z,0
2017-06-02T01:41:25.089Z,0
2017-06-02T01:42:34.728Z,0
2017-06-02T01:43:44.371Z,0
2017-06-02T01:44:54.329Z,0
2017-06-02T01:46:03.966Z,0
2017-06-02T01:47:13.945Z,0
2017-06-02T01:48:24.208Z,0
2017-06-02T01:49:34.155Z,0
2017-06-02T01:50:43.475Z,0
2017-06-02T01:51:53.423Z,0
2017-06-02T01:53:03.072Z,0
2017-06-02T01:54:13.036Z,0
2017-06-02T01:55:23.300Z,0
2017-06-02T01:56:33.575Z,0
2017-06-02T01:57:43.215Z,0
2017-06-02T01:58:53.474Z,0
2017-06-02T02:00:03.419Z,0
2017-06-02T02:01:13.373Z,0
2017-06-02T02:02:23.325Z,0
2017-06-02T02:03:32.958Z,0
2017-06-02T02:04:43.226Z,0
2017-06-02T02:05:52.866Z,0
2017-06-02T02:07:02.818Z,0
2017-06-02T02:08:12.773Z,0
2017-06-02T02:09:23.037Z,0
2017-06-02T02:10:33.294Z,0
2017-06-02T02:11:43.560Z,0
2017-06-02T02:12:53.511Z,0
2017-06-02T02:14:03.784Z,0
2017-06-02T02:15:14.061Z,0
2017-06-02T02:16:23.693Z,0
2017-06-02T02:17:33.964Z,0
2017-06-02T02:18:44.232Z,0
2017-06-02T02:19:54.178Z,0
2017-06-02T02:21:04.131Z,0
2017-06-02T02:22:14.077Z,0
2017-06-02T02:23:23.706Z,0
2017-06-02T02:24:33.024Z,0
2017-06-02T02:25:43.296Z,0
2017-06-02T02:26:53.250Z,0
2017-06-02T02:28:03.218Z,0
2017-06-02T02:29:13.483Z,0
2017-06-02T02:30:23.440Z,0
2017-06-02T02:31:32.764Z,0
2017-06-02T02:32:42.713Z,0
2017-06-02T02:33:52.347Z,0
2017-06-02T02:35:02.615Z,0
2017-06-02T02:36:12.259Z,0
2017-06-02T02:37:22.525Z,0
2017-06-02T02:38:32.164Z,0
2017-06-02T02:39:42.437Z,0
2017-06-02T02:40:52.388Z,0
2017-06-02T02:42:01.714Z,0
2017-06-02T02:43:11.353Z,0
2017-06-02T02:44:21.304Z,0
2017-06-02T02:45:31.571Z,0
2017-06-02T02:46:41.530Z,0
2017-06-02T02:47:51.794Z,0
2017-06-02T02:49:02.057Z,0
2017-06-02T02:50:12.000Z,0
2017-06-02T02:51:21.946Z,0
2017-06-02T02:52:31.580Z,0
2017-06-02T02:53:41.587Z,0
2017-06-02T02:54:51.866Z,0
2017-06-02T02:56:01.816Z,0
2017-06-02T02:57:12.081Z,0
2017-06-02T02:58:22.035Z,0
2017-06-02T02:59:32.301Z,0
2017-06-02T03:00:42.257Z,0
2017-06-02T03:01:52.204Z,0
2017-06-02T03:03:02.150Z,0
2017-06-02T03:04:11.472Z,0
2017-06-02T03:05:21.417Z,0
2017-06-02T03:06:31.679Z,0
2017-06-02T03:07:41.626Z,0
2017-06-02T03:08:51.891Z,0
2017-06-02T03:10:01.841Z,0
2017-06-02T03:11:11.482Z,0
2017-06-02T03:12:21.438Z,0
2017-06-02T03:13:30.760Z,0
2017-06-02T03:14:40.714Z,0
2017-06-02T03:15:50.657Z,0
2017-06-02T03:17:00.924Z,0
2017-06-02T03:18:10.575Z,0
2017-06-02T03:19:20.833Z,0
2017-06-02T03:20:30.468Z,0
2017-06-02T03:21:40.744Z,0
2017-06-02T03:22:50.386Z,0
2017-06-02T03:24:00.095Z,0
2017-06-02T03:25:10.047Z,0
2017-06-02T03:26:19.685Z,0
2017-06-02T03:27:29.942Z,0
2017-06-02T03:28:39.894Z,0
2017-06-02T03:29:49.841Z,0
2017-06-02T03:30:59.794Z,0
2017-06-02T03:32:09.737Z,0
2017-06-02T03:33:20.001Z,0
2017-06-02T03:34:30.275Z,4
2017-06-02T03:35:39.919Z,4
2017-06-02T03:36:49.871Z,4
2017-06-02T03:37:59.511Z,4
2017-06-02T03:39:08.527Z,4
2017-06-02T03:40:18.787Z,4
2017-06-02T03:41:28.417Z,4
2017-06-02T03:42:38.374Z,4
2017-06-02T03:43:48.652Z,4
2017-06-02T03:44:58.921Z,4
2017-06-02T03:46:09.215Z,4
2017-06-02T03:47:19.168Z,4
2017-06-02T03:48:28.807Z,4
2017-06-02T03:49:39.068Z,4
2017-06-02T03:50:49.017Z,4
2017-06-02T03:51:59.285Z,0
2017-06-02T03:53:09.601Z,0
2017-06-02T03:54:19.551Z,0
2017-06-02T03:55:29.501Z,0
2017-06-02T03:56:39.765Z,0
2017-06-02T03:57:49.718Z,0
2017-06-02T03:58:59.357Z,0
2017-06-02T04:00:09.311Z,0
2017-06-02T04:01:19.264Z,0
2017-06-02T04:02:28.911Z,0
2017-06-02T04:03:38.862Z,0
2017-06-02T04:04:49.128Z,0
2017-06-02T04:05:59.398Z,0
2017-06-02T04:07:09.354Z,0
2017-06-02T04:08:19.612Z,4
2017-06-02T04:09:29.566Z,4
2017-06-02T04:10:39.530Z,4
2017-06-02T04:11:49.170Z,4
2017-06-02T04:12:58.810Z,4
2017-06-02T04:14:09.083Z,4
2017-06-02T04:15:19.349Z,4
2017-06-02T04:16:28.662Z,4
2017-06-02T04:17:38.927Z,4
2017-06-02T04:18:49.194Z,4
2017-06-02T04:19:59.169Z,4
2017-06-02T04:21:08.807Z,4
2017-06-02T04:22:18.759Z,4
2017-06-02T04:23:28.397Z,4
2017-06-02T04:24:38.036Z,4
2017-06-02T04:25:47.688Z,4
2017-06-02T04:26:57.337Z,4
2017-06-02T04:28:07.293Z,0
2017-06-02T04:29:17.552Z,0
2017-06-02T04:30:27.187Z,0
2017-06-02T04:31:37.455Z,0
2017-06-02T04:32:47.089Z,4
2017-06-02T04:33:57.355Z,4
2017-06-02T04:35:07.680Z,4
2017-06-02T04:36:17.633Z,4
2017-06-02T04:37:27.588Z,4
2017-06-02T04:38:37.538Z,4
2017-06-02T04:39:47.798Z,4
2017-06-02T04:40:57.751Z,4
2017-06-02T04:42:07.699Z,4
2017-06-02T04:43:17.334Z,4
2017-06-02T04:44:26.655Z,4
2017-06-02T04:45:36.920Z,4
2017-06-02T04:46:46.872Z,4
2017-06-02T04:47:56.511Z,4
2017-06-02T04:49:06.148Z,4
2017-06-02T04:50:15.788Z,4
2017-06-02T04:51:26.053Z,4
2017-06-02T04:52:35.376Z,4
2017-06-02T04:53:45.642Z,4
2017-06-02T04:54:54.655Z,4
2017-06-02T04:56:04.297Z,4
2017-06-02T04:57:13.932Z,4
2017-06-02T04:58:23.566Z,4
2017-06-02T04:59:33.510Z,4
2017-06-02T05:00:43.148Z,4
2017-06-02T05:01:53.095Z,4
2017-06-02T05:03:02.740Z,4
2017-06-02T05:04:12.687Z,4
2017-06-02T05:05:22.322Z,4
2017-06-02T05:06:32.581Z,4
2017-06-02T05:07:41.900Z,4
2017-06-02T05:08:52.171Z,4
2017-06-02T05:10:01.819Z,8
2017-06-02T05:11:12.081Z,8
2017-06-02T05:12:22.042Z,8
2017-06-02T05:13:32.322Z,8
2017-06-02T05:14:41.954Z,8
2017-06-02T05:15:51.927Z,4
2017-06-02T05:17:02.190Z,4
2017-06-02T05:18:11.197Z,4
2017-06-02T05:19:20.521Z,4
2017-06-02T05:20:30.794Z,4
2017-06-02T05:21:40.747Z,4
2017-06-02T05:22:50.718Z,4
2017-06-02T05:24:00.666Z,4
2017-06-02T05:25:10.312Z,8
2017-06-02T05:26:20.578Z,8
2017-06-02T05:27:30.525Z,8
2017-06-02T05:28:40.806Z,8
2017-06-02T05:29:50.445Z,8
2017-06-02T05:31:00.083Z,8
2017-06-02T05:32:10.036Z,8
2017-06-02T05:33:20.303Z,8
2017-06-02T05:34:30.572Z,8
2017-06-02T05:35:40.523Z,4
2017-06-02T05:36:50.160Z,4
2017-06-02T05:38:00.426Z,4
2017-06-02T05:39:10.696Z,4
2017-06-02T05:40:20.328Z,4
2017-06-02T05:41:29.956Z,4
2017-06-02T05:42:39.937Z,8
2017-06-02T05:43:50.205Z,8
2017-06-02T05:45:00.150Z,8
2017-06-02T05:46:10.110Z,8
2017-06-02T05:47:19.787Z,8
2017-06-02T05:48:30.060Z,8
2017-06-02T05:49:40.387Z,8
2017-06-02T05:50:50.652Z,8
2017-06-02T05:52:00.293Z,4
2017-06-02T05:53:10.246Z,4
2017-06-02T05:54:20.512Z,8
2017-06-02T05:55:30.148Z,8
2017-06-02T05:56:39.784Z,8
2017-06-02T05:57:49.738Z,8
2017-06-02T05:58:59.695Z,8
2017-06-02T06:00:09.650Z,8
2017-06-02T06:01:19.608Z,12
2017-06-02T06:02:29.247Z,16
2017-06-02T06:03:39.205Z,24
2017-06-02T06:04:49.157Z,32
2017-06-02T06:05:58.799Z,44
2017-06-02T06:07:07.804Z,52
2017-06-02T06:08:18.062Z,64
2017-06-02T06:09:28.011Z,72
2017-06-02T06:10:37.645Z,80
2017-06-02T06:11:47.598Z,88
2017-06-02T06:12:57.557Z,100
2017-06-02T06:14:07.528Z,108
2017-06-02T06:15:17.473Z,116
2017-06-02T06:16:27.741Z,124
2017-06-02T06:17:37.384Z,128
2017-06-02T06:18:47.649Z,136
2017-06-02T06:19:57.607Z,136
2017-06-02T06:21:07.239Z,132
2017-06-02T06:22:17.200Z,120
2017-06-02T06:23:27.468Z,120
2017-06-02T06:24:37.417Z,124
2017-06-02T06:25:47.367Z,124
2017-06-02T06:26:56.713Z,136
2017-06-02T06:28:06.667Z,132
2017-06-02T06:29:16.625Z,132
2017-06-02T06:30:25.946Z,132
2017-06-02T06:31:35.897Z,132
2017-06-02T06:32:45.228Z,132
2017-06-02T06:33:54.548Z,132
2017-06-02T06:35:04.815Z,132
2017-06-02T06:36:14.772Z,132
2017-06-02T06:37:25.037Z,132
2017-06-02T06:38:34.361Z,132
2017-06-02T06:39:43.992Z,132
2017-06-02T06:40:54.262Z,132
2017-06-02T06:42:03.897Z,132
2017-06-02T06:43:13.846Z,128
2017-06-02T06:44:23.802Z,128
2017-06-02T06:45:33.751Z,128
2017-06-02T06:46:43.389Z,128
2017-06-02T06:47:53.655Z,128
2017-06-02T06:49:03.608Z,128
2017-06-02T06:50:13.245Z,128
2017-06-02T06:51:23.511Z,128
2017-06-02T06:52:32.513Z,124
2017-06-02T06:53:42.461Z,124
2017-06-02T06:54:52.102Z,124
2017-06-02T06:56:02.367Z,124
2017-06-02T06:57:12.321Z,124
2017-06-02T06:58:22.591Z,124
2017-06-02T06:59:32.228Z,120
2017-06-02T07:00:42.203Z,124
2017-06-02T07:01:52.469Z,116
2017-06-02T07:03:02.735Z,116
2017-06-02T07:04:12.373Z,116
2017-06-02T07:05:22.009Z,116
2017-06-02T07:06:31.961Z,116
2017-06-02T07:07:41.601Z,116
2017-06-02T07:08:51.873Z,116
2017-06-02T07:10:01.518Z,112
2017-06-02T07:11:11.466Z,112
2017-06-02T07:12:21.730Z,112
2017-06-02T07:13:31.682Z,112
2017-06-02T07:14:41.318Z,112
2017-06-02T07:15:51.279Z,108
2017-06-02T07:17:00.599Z,108
2017-06-02T07:18:10.239Z,108
2017-06-02T07:19:20.512Z,104
2017-06-02T07:20:30.782Z,104
2017-06-02T07:21:41.049Z,108
2017-06-02T07:22:51.317Z,104
2017-06-02T07:24:01.275Z,100
2017-06-02T07:25:11.540Z,100
2017-06-02T07:26:21.803Z,100
2017-06-02T07:27:32.074Z,104
2017-06-02T07:28:41.713Z,100
2017-06-02T07:29:51.351Z,96
2017-06-02T07:31:01.308Z,96
2017-06-02T07:32:10.943Z,96
2017-06-02T07:33:20.898Z,92
2017-06-02T07:34:30.535Z,92
2017-06-02T07:35:40.807Z,88
2017-06-02T07:36:50.754Z,88
2017-06-02T07:38:00.077Z,92
2017-06-02T07:39:10.024Z,88
2017-06-02T07:40:19.350Z,88
2017-06-02T07:41:29.305Z,84
2017-06-02T07:42:38.937Z,84
2017-06-02T07:43:49.205Z,84
2017-06-02T07:44:59.475Z,84
2017-06-02T07:46:09.430Z,84
2017-06-02T07:47:19.380Z,80
2017-06-02T07:48:29.330Z,80
2017-06-02T07:49:39.285Z,76
2017-06-02T07:50:49.235Z,80
2017-06-02T07:51:59.185Z,76
2017-06-02T07:53:08.829Z,76
2017-06-02T07:54:18.463Z,76
2017-06-02T07:55:28.728Z,72
2017-06-02T07:56:38.372Z,72
2017-06-02T07:57:48.005Z,72
2017-06-02T07:58:57.330Z,72
2017-06-02T08:00:07.294Z,72
2017-06-02T08:01:17.244Z,72
2017-06-02T08:02:27.194Z,68
2017-06-02T08:03:37.143Z,68
2017-06-02T08:04:47.096Z,64
2017-06-02T08:05:57.371Z,68
2017-06-02T08:07:07.007Z,64
2017-06-02T08:08:17.273Z,64
2017-06-02T08:09:27.232Z,64
2017-06-02T08:10:37.499Z,60
2017-06-02T08:11:47.769Z,60
2017-06-02T08:12:57.401Z,60
2017-06-02T08:14:07.679Z,56
2017-06-02T08:15:17.636Z,56
2017-06-02T08:16:27.899Z,56
2017-06-02T08:17:37.853Z,56
2017-06-02T08:18:47.489Z,56
2017-06-02T08:19:57.456Z,56
2017-06-02T08:21:07.733Z,56
2017-06-02T08:22:17.688Z,52
2017-06-02T08:23:27.955Z,52
2017-06-02T08:24:37.908Z,52
2017-06-02T08:25:48.183Z,52
2017-06-02T08:26:58.138Z,52
2017-06-02T08:28:08.106Z,48
2017-06-02T08:29:17.772Z,48
2017-06-02T08:30:28.057Z,48
2017-06-02T08:31:37.698Z,44
2017-06-02T08:32:47.335Z,44
2017-06-02T08:33:57.614Z,44
2017-06-02T08:35:07.580Z,44
2017-06-02T08:36:17.219Z,44
2017-06-02T08:37:26.863Z,44
2017-06-02T08:38:37.127Z,44
2017-06-02T08:39:46.451Z,40
2017-06-02T08:40:56.406Z,40
2017-06-02T08:42:06.676Z,40
2017-06-02T08:43:16.625Z,40
2017-06-02T08:44:25.950Z,40
2017-06-02T08:45:35.907Z,36
2017-06-02T08:46:46.177Z,32
2017-06-02T08:47:56.451Z,32
2017-06-02T08:49:06.721Z,32
2017-06-02T08:50:16.990Z,32
2017-06-02T08:51:26.947Z,28
2017-06-02T08:52:36.904Z,32
2017-06-02T08:53:46.534Z,32
2017-06-02T08:54:56.481Z,32
2017-06-02T08:56:06.749Z,28
2017-06-02T08:57:16.697Z,28
2017-06-02T08:58:26.017Z,28
2017-06-02T08:59:35.970Z,28
2017-06-02T09:00:46.244Z,28
2017-06-02T09:01:56.192Z,28
2017-06-02T09:03:05.835Z,24
2017-06-02T09:04:15.471Z,24
2017-06-02T09:05:25.743Z,24
2017-06-02T09:06:35.697Z,24
2017-06-02T09:07:45.966Z,24
2017-06-02T09:08:56.233Z,24
2017-06-02T09:10:06.190Z,24
2017-06-02T09:11:16.455Z,24
2017-06-02T09:12:26.406Z,20
2017-06-02T09:13:36.361Z,24
2017-06-02T09:14:46.063Z,20
2017-06-02T09:15:56.331Z,20
2017-06-02T09:17:05.972Z,20
2017-06-02T09:18:16.243Z,20
2017-06-02T09:19:25.880Z,20
2017-06-02T09:20:36.148Z,20
2017-06-02T09:21:46.095Z,16
2017-06-02T09:22:56.357Z,16
2017-06-02T09:24:06.630Z,16
2017-06-02T09:25:16.582Z,16
2017-06-02T09:26:26.215Z,20
2017-06-02T09:27:36.175Z,16
2017-06-02T09:28:45.182Z,16
2017-06-02T09:29:55.140Z,16
2017-06-02T09:31:05.095Z,16
2017-06-02T09:32:15.416Z,16
2017-06-02T09:33:25.677Z,16
2017-06-02T09:34:35.627Z,16
2017-06-02T09:35:45.266Z,16
2017-06-02T09:36:55.218Z,16
2017-06-02T09:38:04.854Z,16
2017-06-02T09:39:14.168Z,16
2017-06-02T09:40:24.128Z,16
2017-06-02T09:41:34.396Z,16
2017-06-02T09:42:44.345Z,16
2017-06-02T09:43:54.347Z,16
2017-06-02T09:45:03.678Z,16
2017-06-02T09:46:13.631Z,16
2017-06-02T09:47:23.898Z,16
2017-06-02T09:48:34.202Z,16
2017-06-02T09:49:44.178Z,16
2017-06-02T09:50:54.447Z,16
2017-06-02T09:52:04.722Z,16
2017-06-02T09:53:14.703Z,16
2017-06-02T09:54:24.022Z,16
2017-06-02T09:55:33.978Z,16
2017-06-02T09:56:44.248Z,16
2017-06-02T09:57:54.525Z,16
2017-06-02T09:59:04.161Z,16
2017-06-02T10:00:14.429Z,12
2017-06-02T10:01:24.388Z,12
2017-06-02T10:02:34.654Z,12
2017-06-02T10:03:44.609Z,12
2017-06-02T10:04:54.870Z,12
2017-06-02T10:06:05.138Z,12
2017-06-02T10:07:15.098Z,16
2017-06-02T10:08:24.746Z,16
2017-06-02T10:09:34.697Z,16
2017-06-02T10:10:44.656Z,16
2017-06-02T10:11:54.922Z,16
2017-06-02T10:13:04.875Z,12
2017-06-02T10:14:15.144Z,12
2017-06-02T10:15:25.095Z,12
2017-06-02T10:16:35.366Z,12
2017-06-02T10:17:45.641Z,12
2017-06-02T10:18:55.593Z,16
2017-06-02T10:20:05.861Z,12
2017-06-02T10:21:15.516Z,16
2017-06-02T10:22:25.471Z,16
2017-06-02T10:23:35.488Z,12
2017-06-02T10:24:45.447Z,16
2017-06-02T10:25:54.772Z,16
2017-06-02T10:27:04.101Z,12
2017-06-02T10:28:13.744Z,12
2017-06-02T10:29:24.091Z,12
2017-06-02T10:30:34.349Z,12
2017-06-02T10:31:44.309Z,12
2017-06-02T10:32:54.268Z,12
2017-06-02T10:34:04.219Z,16
2017-06-02T10:35:13.857Z,12
2017-06-02T10:36:24.129Z,12
2017-06-02T10:37:34.084Z,12
2017-06-02T10:38:44.345Z,12
2017-06-02T10:39:54.612Z,8
2017-06-02T10:41:04.563Z,12
2017-06-02T10:42:14.832Z,8
2017-06-02T10:43:24.782Z,12
2017-06-02T10:44:35.043Z,12
2017-06-02T10:45:44.997Z,12
2017-06-02T10:46:54.637Z,12
2017-06-02T10:48:04.926Z,12
2017-06-02T10:49:14.564Z,12
2017-06-02T10:50:24.830Z,12
2017-06-02T10:51:34.786Z,12
2017-06-02T10:52:44.739Z,12
2017-06-02T10:53:54.694Z,8
2017-06-02T10:55:04.639Z,12
2017-06-02T10:56:14.600Z,12
2017-06-02T10:57:24.231Z,12
2017-06-02T10:58:34.180Z,12
2017-06-02T10:59:44.142Z,12
2017-06-02T11:00:53.781Z,12
2017-06-02T11:02:04.048Z,12
2017-06-02T11:03:13.999Z,12
2017-06-02T11:04:23.646Z,8
2017-06-02T11:05:33.909Z,8
2017-06-02T11:06:43.549Z,8
2017-06-02T11:07:53.514Z,8
2017-06-02T11:09:03.784Z,12
2017-06-02T11:10:13.106Z,12
2017-06-02T11:11:23.059Z,8
2017-06-02T11:12:33.032Z,8
2017-06-02T11:13:43.310Z,8
2017-06-02T11:14:53.259Z,8
2017-06-02T11:16:02.583Z,8
2017-06-02T11:17:12.854Z,8
2017-06-02T11:18:22.806Z,8
2017-06-02T11:19:32.759Z,12
2017-06-02T11:20:43.023Z,8
2017-06-02T11:21:52.663Z,8
2017-06-02T11:23:02.935Z,8
2017-06-02T11:24:12.264Z,8
2017-06-02T11:25:22.529Z,12
2017-06-02T11:26:32.791Z,8
2017-06-02T11:27:43.061Z,8
2017-06-02T11:28:52.706Z,8
2017-06-02T11:30:02.977Z,12
2017-06-02T11:31:12.613Z,12
2017-06-02T11:32:22.876Z,12
2017-06-02T11:33:32.830Z,12
2017-06-02T11:34:42.478Z,12
2017-06-02T11:35:52.429Z,16
2017-06-02T11:37:02.699Z,16
2017-06-02T11:38:12.652Z,12
2017-06-02T11:39:22.919Z,16
2017-06-02T11:40:32.554Z,12
2017-06-02T11:41:41.559Z,12
2017-06-02T11:42:51.866Z,12
2017-06-02T11:44:01.816Z,12
2017-06-02T11:45:11.456Z,12
2017-06-02T11:46:21.726Z,12
2017-06-02T11:47:31.397Z,16
2017-06-02T11:48:41.665Z,12
2017-06-02T11:49:51.613Z,12
2017-06-02T11:51:01.570Z,12
2017-06-02T11:52:11.523Z,16
2017-06-02T11:53:20.847Z,16
2017-06-02T11:54:30.484Z,16
2017-06-02T11:55:40.439Z,16
2017-06-02T11:56:50.075Z,12
2017-06-02T11:58:00.021Z,16
2017-06-02T11:59:09.971Z,16
2017-06-02T12:00:19.926Z,16
2017-06-02T12:01:29.879Z,16
2017-06-02T12:02:39.828Z,16
2017-06-02T12:03:49.781Z,16
2017-06-02T12:05:00.053Z,16
2017-06-02T12:06:10.320Z,16
2017-06-02T12:07:20.588Z,16
2017-06-02T12:08:30.547Z,16
2017-06-02T12:09:40.179Z,16
2017-06-02T12:10:50.445Z,16
2017-06-02T12:12:00.082Z,16
2017-06-02T12:13:09.729Z,8
2017-06-02T12:14:19.363Z,12
2017-06-02T12:15:29.315Z,12
2017-06-02T12:16:39.584Z,12
2017-06-02T12:17:49.853Z,12
2017-06-02T12:19:00.107Z,12
2017-06-02T12:20:10.062Z,12
2017-06-02T12:21:20.016Z,12
2017-06-02T12:22:29.342Z,12
2017-06-02T12:23:38.665Z,12
2017-06-02T12:24:48.935Z,12
2017-06-02T12:25:58.886Z,12
2017-06-02T12:27:09.154Z,12
2017-06-02T12:28:19.436Z,12
2017-06-02T12:29:29.704Z,12
2017-06-02T12:30:39.340Z,12
2017-06-02T12:31:48.978Z,12
2017-06-02T12:32:58.614Z,16
2017-06-02T12:34:08.905Z,12
2017-06-02T12:35:18.864Z,16
2017-06-02T12:36:28.499Z,16
2017-06-02T12:37:38.766Z,16
2017-06-02T12:38:48.405Z,16
2017-06-02T12:39:58.048Z,12
2017-06-02T12:41:08.317Z,16
2017-06-02T12:42:18.274Z,12
2017-06-02T12:43:27.917Z,12
2017-06-02T12:44:37.871Z,12
2017-06-02T12:45:47.823Z,12
2017-06-02T12:46:57.775Z,12
2017-06-02T12:48:07.723Z,12
2017-06-02T12:49:17.673Z,16
2017-06-02T12:50:27.936Z,12
2017-06-02T12:51:37.888Z,16
2017-06-02T12:52:48.156Z,16
2017-06-02T12:53:58.113Z,12
2017-06-02T12:55:08.071Z,16
2017-06-02T12:56:18.344Z,16
2017-06-02T12:57:28.293Z,16
2017-06-02T12:58:38.240Z,16
2017-06-02T12:59:48.503Z,16
2017-06-02T13:00:58.464Z,16
2017-06-02T13:02:08.410Z,16
2017-06-02T13:03:18.056Z,16
2017-06-02T13:04:28.313Z,16
2017-06-02T13:05:38.585Z,24
2017-06-02T13:06:48.537Z,28
2017-06-02T13:07:58.501Z,28
2017-06-02T13:09:08.760Z,24
2017-06-02T13:10:18.400Z,24
2017-06-02T13:11:28.354Z,24
2017-06-02T13:12:38.610Z,28
2017-06-02T13:13:48.247Z,24
2017-06-02T13:14:58.509Z,28
2017-06-02T13:16:08.461Z,28
2017-06-02T13:17:18.412Z,28
2017-06-02T13:18:28.367Z,28
2017-06-02T13:19:38.318Z,24
2017-06-02T13:20:48.259Z,28
2017-06-02T13:21:58.527Z,32
2017-06-02T13:23:08.787Z,32
2017-06-02T13:24:19.042Z,28
2017-06-02T13:25:28.992Z,32
2017-06-02T13:26:38.947Z,28
2017-06-02T13:27:49.206Z,32
2017-06-02T13:28:58.839Z,32
2017-06-02T13:30:08.789Z,28
2017-06-02T13:31:18.445Z,28
2017-06-02T13:32:28.712Z,32
2017-06-02T13:33:38.662Z,32
2017-06-02T13:34:47.979Z,32
2017-06-02T13:35:57.607Z,32
2017-06-02T13:37:07.871Z,28
2017-06-02T13:38:17.816Z,32
2017-06-02T13:39:27.135Z,36
2017-06-02T13:40:36.772Z,32
2017-06-02T13:41:46.413Z,32
2017-06-02T13:42:56.366Z,32
2017-06-02T13:44:05.995Z,20
2017-06-02T13:45:15.964Z,20
2017-06-02T13:46:26.235Z,20
2017-06-02T13:47:36.182Z,20
2017-06-02T13:48:46.447Z,20
2017-06-02T13:49:56.392Z,24
2017-06-02T13:51:06.652Z,20
2017-06-02T13:52:16.597Z,20
2017-06-02T13:53:26.864Z,20
2017-06-02T13:54:36.809Z,20
2017-06-02T13:55:46.754Z,20
2017-06-02T13:56:56.704Z,20
2017-06-02T13:58:06.362Z,20
2017-06-02T13:59:16.627Z,20
2017-06-02T14:00:26.263Z,24
2017-06-02T14:01:36.219Z,24
2017-06-02T14:02:46.494Z,24
2017-06-02T14:03:56.475Z,24
2017-06-02T14:05:06.418Z,20
2017-06-02T14:06:16.367Z,20
2017-06-02T14:07:26.635Z,24
2017-06-02T14:08:36.592Z,24
2017-06-02T14:09:46.876Z,24
2017-06-02T14:10:56.822Z,24
2017-06-02T14:12:06.457Z,24
2017-06-02T14:13:16.097Z,24
2017-06-02T14:14:25.734Z,24
2017-06-02T14:15:36.001Z,24
2017-06-02T14:16:45.319Z,20
2017-06-02T14:17:55.267Z,20
2017-06-02T14:19:05.530Z,24
2017-06-02T14:20:15.166Z,24
2017-06-02T14:21:25.120Z,24
2017-06-02T14:22:35.384Z,24
2017-06-02T14:23:45.334Z,24
2017-06-02T14:24:55.609Z,24
2017-06-02T14:26:05.869Z,24
2017-06-02T14:27:15.817Z,24
2017-06-02T14:28:26.084Z,24
2017-06-02T14:29:36.341Z,28
2017-06-02T14:30:46.288Z,28
2017-06-02T14:31:56.241Z,32
2017-06-02T14:33:05.870Z,28
2017-06-02T14:34:15.833Z,32
2017-06-02T14:35:25.776Z,32
2017-06-02T14:36:35.734Z,32
2017-06-02T14:37:45.690Z,32
2017-06-02T14:38:55.956Z,32
2017-06-02T14:40:05.590Z,32
2017-06-02T14:41:15.863Z,24
2017-06-02T14:42:26.120Z,28
2017-06-02T14:43:35.763Z,24
2017-06-02T14:44:45.399Z,24
2017-06-02T14:45:55.345Z,24
2017-06-02T14:47:05.613Z,24
2017-06-02T14:48:15.898Z,24
2017-06-02T14:49:26.171Z,24
2017-06-02T14:50:36.440Z,24
2017-06-02T14:51:46.703Z,24
2017-06-02T14:52:56.968Z,40
2017-06-02T14:54:06.933Z,44
2017-06-02T14:55:16.889Z,44
2017-06-02T14:56:26.520Z,40
2017-06-02T14:57:36.466Z,44
2017-06-02T14:58:46.734Z,40
2017-06-02T14:59:56.689Z,44
2017-06-02T15:01:06.954Z,40
2017-06-02T15:02:16.901Z,32
2017-06-02T15:03:26.544Z,36
2017-06-02T15:04:36.813Z,40
2017-06-02T15:05:47.077Z,44
2017-06-02T15:06:57.031Z,44
2017-06-02T15:08:06.976Z,40
2017-06-02T15:09:17.232Z,44
2017-06-02T15:10:26.873Z,44
2017-06-02T15:11:36.821Z,40
2017-06-02T15:12:47.084Z,40
2017-06-02T15:13:57.030Z,40
2017-06-02T15:15:06.981Z,40
2017-06-02T15:16:17.257Z,40
2017-06-02T15:17:27.237Z,44
2017-06-02T15:18:37.183Z,44
2017-06-02T15:19:46.845Z,44
2017-06-02T15:20:57.112Z,40
2017-06-02T15:22:07.068Z,44
2017-06-02T15:23:17.333Z,36
2017-06-02T15:24:26.972Z,44
2017-06-02T15:25:36.914Z,44
2017-06-02T15:26:46.865Z,36
2017-06-02T15:27:57.130Z,36
2017-06-02T15:29:07.077Z,40
2017-06-02T15:30:17.346Z,40
2017-06-02T15:31:26.982Z,40
2017-06-02T15:32:36.636Z,36
2017-06-02T15:33:45.641Z,32
2017-06-02T15:34:55.906Z,36
2017-06-02T15:36:06.177Z,36
2017-06-02T15:37:16.127Z,36
2017-06-02T15:38:26.090Z,36
2017-06-02T15:39:35.720Z,36
2017-06-02T15:40:45.358Z,36
2017-06-02T15:41:54.995Z,40
2017-06-02T15:43:05.255Z,36
2017-06-02T15:44:14.887Z,36
2017-06-02T15:45:24.830Z,36
2017-06-02T15:46:34.785Z,36
2017-06-02T15:47:45.047Z,36
2017-06-02T15:48:55.306Z,36
2017-06-02T15:50:04.949Z,36
2017-06-02T15:51:13.955Z,40
2017-06-02T15:52:24.218Z,36
2017-06-02T15:53:34.484Z,36
2017-06-02T15:54:44.437Z,32
2017-06-02T15:55:54.071Z,32
2017-06-02T15:57:04.014Z,32
2017-06-02T15:58:13.961Z,36
2017-06-02T15:59:23.919Z,32
2017-06-02T16:00:33.880Z,32
2017-06-02T16:01:43.201Z,32
2017-06-02T16:02:53.470Z,28
2017-06-02T16:04:03.743Z,28
2017-06-02T16:05:13.701Z,28
2017-06-02T16:06:23.330Z,28
2017-06-02T16:07:33.598Z,28
2017-06-02T16:08:43.546Z,28
2017-06-02T16:09:53.841Z,32
2017-06-02T16:11:04.115Z,28
2017-06-02T16:12:13.122Z,32
2017-06-02T16:13:22.449Z,28
2017-06-02T16:14:32.424Z,32
2017-06-02T16:15:42.686Z,28
2017-06-02T16:16:52.633Z,32
2017-06-02T16:18:02.895Z,28
2017-06-02T16:19:13.166Z,28
2017-06-02T16:20:23.441Z,24
2017-06-02T16:21:33.703Z,24
2017-06-02T16:22:43.370Z,20
2017-06-02T16:23:53.648Z,24
2017-06-02T16:25:03.282Z,28
2017-06-02T16:26:13.228Z,24
2017-06-02T16:27:23.184Z,24
2017-06-02T16:28:33.450Z,28
2017-06-02T16:29:43.083Z,28
2017-06-02T16:30:53.351Z,20
2017-06-02T16:32:03.613Z,24
2017-06-02T16:33:13.879Z,24
2017-06-02T16:34:23.835Z,24
2017-06-02T16:35:33.780Z,28
2017-06-02T16:36:43.413Z,16
2017-06-02T16:37:53.680Z,16
2017-06-02T16:39:03.316Z,12
2017-06-02T16:40:13.265Z,16
2017-06-02T16:41:23.530Z,16
2017-06-02T16:42:33.478Z,16
2017-06-02T16:43:43.456Z,16
2017-06-02T16:44:53.098Z,16
2017-06-02T16:46:03.049Z,12
2017-06-02T16:47:12.997Z,12
2017-06-02T16:48:22.947Z,16